sensor_id;sensor_type;location;lat;lon;timestamp;pressure;altitude;pressure_sealevel;temperature;humidity
8160;BME280;27404;52.398;9.646;2024-02-26T00:00:28;99583.75;;;-0.34;100.00
8160;BME280;27404;52.398;9.646;2024-02-26T00:02:54;99579.91;;;-0.46;100.00
8160;BME280;27404;52.398;9.646;2024-02-26T00:05:20;99577.59;;;-0.49;100.00
8160;BME280;27404;52.398;9.646;2024-02-26T00:07:45;99573.88;;;-0.48;100.00
8160;BME280;27404;52.398;9.646;2024-02-26T00:10:13;99574.69;;;-0.48;100.00
8160;BME280;27404;52.398;9.646;2024-02-26T00:12:38;99571.63;;;-0.45;100.00
8160;BME280;27404;52.398;9.646;2024-02-26T00:15:08;99573.03;;;-0.49;100.00
8160;BME280;27404;52.398;9.646;2024-02-26T00:17:33;99571.09;;;-0.40;100.00
8160;BME280;27404;52.398;9.646;2024-02-26T00:19:59;99571.09;;;-0.40;100.00
8160;BME280;27404;52.398;9.646;2024-02-26T00:22:26;99569.97;;;-0.46;100.00
8160;BME280;27404;52.398;9.646;2024-02-26T00:24:51;99563.91;;;-0.54;100.00
8160;BME280;27404;52.398;9.646;2024-02-26T00:27:17;99561.50;;;-0.64;100.00
8160;BME280;27404;52.398;9.646;2024-02-26T00:29:42;99564.97;;;-0.49;100.00
8160;BME280;27404;52.398;9.646;2024-02-26T00:32:08;99563.72;;;-0.31;100.00
8160;BME280;27404;52.398;9.646;2024-02-26T00:34:33;99567.44;;;-0.10;100.00
8160;BME280;27404;52.398;9.646;2024-02-26T00:36:58;99561.34;;;0.03;100.00
8160;BME280;27404;52.398;9.646;2024-02-26T00:39:24;99560.59;;;0.09;100.00
8160;BME280;27404;52.398;9.646;2024-02-26T00:41:49;99568.06;;;0.13;100.00
8160;BME280;27404;52.398;9.646;2024-02-26T00:44:17;99563.78;;;-0.03;100.00
8160;BME280;27404;52.398;9.646;2024-02-26T00:46:42;99569.53;;;-0.06;100.00
8160;BME280;27404;52.398;9.646;2024-02-26T00:49:08;99562.84;;;-0.17;100.00
8160;BME280;27404;52.398;9.646;2024-02-26T00:51:33;99557.09;;;-0.13;100.00
8160;BME280;27404;52.398;9.646;2024-02-26T00:53:58;99561.19;;;-0.18;100.00
8160;BME280;27404;52.398;9.646;2024-02-26T00:56:24;99558.34;;;-0.31;100.00
8160;BME280;27404;52.398;9.646;2024-02-26T00:58:50;99558.75;;;-0.34;100.00
8160;BME280;27404;52.398;9.646;2024-02-26T01:01:15;99566.91;;;-0.42;100.00
8160;BME280;27404;52.398;9.646;2024-02-26T01:03:40;99552.84;;;-0.45;100.00
8160;BME280;27404;52.398;9.646;2024-02-26T01:06:06;99560.78;;;-0.36;100.00
8160;BME280;27404;52.398;9.646;2024-02-26T01:08:31;99559.06;;;-0.22;100.00
8160;BME280;27404;52.398;9.646;2024-02-26T01:10:57;99564.53;;;-0.31;100.00
8160;BME280;27404;52.398;9.646;2024-02-26T01:13:22;99563.72;;;-0.31;100.00
8160;BME280;27404;52.398;9.646;2024-02-26T01:15:48;99562.06;;;-0.32;100.00
8160;BME280;27404;52.398;9.646;2024-02-26T01:18:13;99562.97;;;-0.25;100.00
8160;BME280;27404;52.398;9.646;2024-02-26T01:20:39;99563.88;;;-0.18;100.00
8160;BME280;27404;52.398;9.646;2024-02-26T01:23:04;99576.78;;;-0.06;100.00
8160;BME280;27404;52.398;9.646;2024-02-26T01:25:30;99570.06;;;0.05;100.00
8160;BME280;27404;52.398;9.646;2024-02-26T01:27:55;99571.97;;;0.11;100.00
8160;BME280;27404;52.398;9.646;2024-02-26T01:30:21;99574.53;;;0.19;100.00
8160;BME280;27404;52.398;9.646;2024-02-26T01:32:46;99566.22;;;0.42;100.00
8160;BME280;27404;52.398;9.646;2024-02-26T01:35:12;99573.44;;;0.42;100.00
8160;BME280;27404;52.398;9.646;2024-02-26T01:37:38;99577.66;;;0.51;100.00
8160;BME280;27404;52.398;9.646;2024-02-26T01:40:03;99567.13;;;0.56;100.00
8160;BME280;27404;52.398;9.646;2024-02-26T01:42:30;99557.53;;;0.76;100.00
8160;BME280;27404;52.398;9.646;2024-02-26T01:44:57;99562.91;;;0.76;100.00
8160;BME280;27404;52.398;9.646;2024-02-26T01:47:23;99572.06;;;0.81;100.00
8160;BME280;27404;52.398;9.646;2024-02-26T01:49:49;99568.44;;;0.67;100.00
8160;BME280;27404;52.398;9.646;2024-02-26T01:52:14;99575.84;;;0.58;100.00
8160;BME280;27404;52.398;9.646;2024-02-26T01:54:42;99571.94;;;0.61;100.00
8160;BME280;27404;52.398;9.646;2024-02-26T01:57:11;99574.31;;;0.78;100.00
8160;BME280;27404;52.398;9.646;2024-02-26T01:59:37;99579.50;;;0.79;100.00
8160;BME280;27404;52.398;9.646;2024-02-26T02:02:07;99582.97;;;0.73;100.00
8160;BME280;27404;52.398;9.646;2024-02-26T02:04:35;99585.44;;;0.68;100.00
8160;BME280;27404;52.398;9.646;2024-02-26T02:07:01;99593.91;;;0.71;100.00
8160;BME280;27404;52.398;9.646;2024-02-26T02:09:27;99585.28;;;0.76;100.00
8160;BME280;27404;52.398;9.646;2024-02-26T02:11:53;99582.22;;;0.86;100.00
8160;BME280;27404;52.398;9.646;2024-02-26T02:14:19;99575.38;;;0.83;100.00
8160;BME280;27404;52.398;9.646;2024-02-26T02:16:44;99578.47;;;0.80;100.00
8160;BME280;27404;52.398;9.646;2024-02-26T02:19:10;99579.28;;;0.81;100.00
8160;BME280;27404;52.398;9.646;2024-02-26T02:21:35;99578.25;;;0.82;100.00
8160;BME280;27404;52.398;9.646;2024-02-26T02:24:01;99588.22;;;0.88;100.00
8160;BME280;27404;52.398;9.646;2024-02-26T02:26:26;99574.34;;;0.84;100.00
8160;BME280;27404;52.398;9.646;2024-02-26T02:28:52;99579.91;;;0.83;100.00
8160;BME280;27404;52.398;9.646;2024-02-26T02:31:18;99574.94;;;0.80;100.00
8160;BME280;27404;52.398;9.646;2024-02-26T02:33:44;99575.53;;;0.75;100.00
8160;BME280;27404;52.398;9.646;2024-02-26T02:36:09;99571.28;;;0.87;100.00
8160;BME280;27404;52.398;9.646;2024-02-26T02:38:48;99577.72;;;0.93;100.00
8160;BME280;27404;52.398;9.646;2024-02-26T02:41:15;99567.97;;;0.92;100.00
8160;BME280;27404;52.398;9.646;2024-02-26T02:43:40;99561.31;;;0.81;100.00
8160;BME280;27404;52.398;9.646;2024-02-26T02:46:06;99568.75;;;0.79;100.00
8160;BME280;27404;52.398;9.646;2024-02-26T02:48:31;99570.44;;;0.87;100.00
8160;BME280;27404;52.398;9.646;2024-02-26T02:50:57;99567.31;;;0.83;100.00
8160;BME280;27404;52.398;9.646;2024-02-26T02:53:22;99571.66;;;0.84;100.00
8160;BME280;27404;52.398;9.646;2024-02-26T02:55:47;99578.94;;;0.91;100.00
8160;BME280;27404;52.398;9.646;2024-02-26T02:58:13;99572.94;;;0.88;100.00
8160;BME280;27404;52.398;9.646;2024-02-26T03:00:39;99571.75;;;0.69;100.00
8160;BME280;27404;52.398;9.646;2024-02-26T03:03:04;99580.84;;;0.62;100.00
8160;BME280;27404;52.398;9.646;2024-02-26T03:05:30;99572.19;;;0.66;100.00
8160;BME280;27404;52.398;9.646;2024-02-26T03:07:55;99581.16;;;0.80;100.00
8160;BME280;27404;52.398;9.646;2024-02-26T03:10:20;99580.31;;;0.80;100.00
8160;BME280;27404;52.398;9.646;2024-02-26T03:12:46;99585.63;;;0.66;100.00
8160;BME280;27404;52.398;9.646;2024-02-26T03:15:11;99591.94;;;0.80;100.00
8160;BME280;27404;52.398;9.646;2024-02-26T03:17:37;99592.56;;;0.82;100.00
8160;BME280;27404;52.398;9.646;2024-02-26T03:20:03;99583.78;;;0.73;100.00
8160;BME280;27404;52.398;9.646;2024-02-26T03:22:30;99587.31;;;0.74;100.00
8160;BME280;27404;52.398;9.646;2024-02-26T03:24:56;99590.41;;;0.71;100.00
8160;BME280;27404;52.398;9.646;2024-02-26T03:27:21;99584.41;;;0.69;100.00
8160;BME280;27404;52.398;9.646;2024-02-26T03:29:47;99590.56;;;0.63;100.00
8160;BME280;27404;52.398;9.646;2024-02-26T03:32:13;99586.44;;;0.67;100.00
8160;BME280;27404;52.398;9.646;2024-02-26T03:34:38;99586.66;;;0.65;100.00
8160;BME280;27404;52.398;9.646;2024-02-26T03:37:07;99602.56;;;0.60;100.00
8160;BME280;27404;52.398;9.646;2024-02-26T03:39:35;99603.19;;;0.62;100.00
8160;BME280;27404;52.398;9.646;2024-02-26T03:42:00;99593.50;;;0.68;100.00
8160;BME280;27404;52.398;9.646;2024-02-26T03:44:26;99591.41;;;0.63;100.00
8160;BME280;27404;52.398;9.646;2024-02-26T03:46:51;99595.56;;;0.66;100.00
8160;BME280;27404;52.398;9.646;2024-02-26T03:49:17;99588.13;;;0.68;100.00
8160;BME280;27404;52.398;9.646;2024-02-26T03:51:43;99588.13;;;0.68;100.00
8160;BME280;27404;52.398;9.646;2024-02-26T03:54:08;99593.63;;;0.59;100.00
8160;BME280;27404;52.398;9.646;2024-02-26T03:56:34;99589.09;;;0.60;100.00
8160;BME280;27404;52.398;9.646;2024-02-26T03:58:59;99590.38;;;0.64;100.00
8160;BME280;27404;52.398;9.646;2024-02-26T04:01:27;99590.19;;;0.72;100.00
8160;BME280;27404;52.398;9.646;2024-02-26T04:03:52;99591.63;;;0.68;100.00
8160;BME280;27404;52.398;9.646;2024-02-26T04:06:18;99594.28;;;0.62;100.00
8160;BME280;27404;52.398;9.646;2024-02-26T04:08:46;99590.84;;;0.74;100.00
8160;BME280;27404;52.398;9.646;2024-02-26T04:11:11;99598.50;;;0.78;100.00
8160;BME280;27404;52.398;9.646;2024-02-26T04:13:37;99597.69;;;0.77;100.00
8160;BME280;27404;52.398;9.646;2024-02-26T04:16:04;99592.94;;;0.79;100.00
8160;BME280;27404;52.398;9.646;2024-02-26T04:18:31;99595.59;;;0.72;100.00
8160;BME280;27404;52.398;9.646;2024-02-26T04:20:57;99601.31;;;0.63;100.00
8160;BME280;27404;52.398;9.646;2024-02-26T04:23:23;99602.34;;;0.62;100.00
8160;BME280;27404;52.398;9.646;2024-02-26T04:25:48;99614.34;;;0.59;100.00
8160;BME280;27404;52.398;9.646;2024-02-26T04:28:14;99614.97;;;0.61;100.00
8160;BME280;27404;52.398;9.646;2024-02-26T04:30:40;99614.09;;;0.54;100.00
8160;BME280;27404;52.398;9.646;2024-02-26T04:33:05;99621.81;;;0.64;100.00
8160;BME280;27404;52.398;9.646;2024-02-26T04:35:31;99618.75;;;0.73;100.00
8160;BME280;27404;52.398;9.646;2024-02-26T04:37:57;99619.63;;;0.81;100.00
8160;BME280;27404;52.398;9.646;2024-02-26T04:40:23;99634.34;;;0.78;100.00
8160;BME280;27404;52.398;9.646;2024-02-26T04:42:49;99627.94;;;0.79;100.00
8160;BME280;27404;52.398;9.646;2024-02-26T04:45:14;99629.13;;;0.77;100.00
8160;BME280;27404;52.398;9.646;2024-02-26T04:47:40;99631.69;;;0.85;100.00
8160;BME280;27404;52.398;9.646;2024-02-26T04:50:06;99635.84;;;0.87;100.00
8160;BME280;27404;52.398;9.646;2024-02-26T04:52:31;99641.63;;;0.84;100.00
8160;BME280;27404;52.398;9.646;2024-02-26T04:54:57;99643.06;;;0.87;100.00
8160;BME280;27404;52.398;9.646;2024-02-26T04:57:25;99638.53;;;0.87;100.00
8160;BME280;27404;52.398;9.646;2024-02-26T04:59:51;99638.31;;;0.89;100.00
8160;BME280;27404;52.398;9.646;2024-02-26T05:02:17;99644.59;;;0.96;100.00
8160;BME280;27404;52.398;9.646;2024-02-26T05:04:43;99646.06;;;0.99;100.00
8160;BME280;27404;52.398;9.646;2024-02-26T05:07:08;99653.25;;;0.92;100.00
8160;BME280;27404;52.398;9.646;2024-02-26T05:09:34;99655.06;;;0.84;100.00
8160;BME280;27404;52.398;9.646;2024-02-26T05:12:00;99657.13;;;0.82;100.00
8160;BME280;27404;52.398;9.646;2024-02-26T05:14:25;99659.91;;;0.96;100.00
8160;BME280;27404;52.398;9.646;2024-02-26T05:16:51;99661.91;;;0.87;100.00
8160;BME280;27404;52.398;9.646;2024-02-26T05:19:16;99660.84;;;0.81;100.00
8160;BME280;27404;52.398;9.646;2024-02-26T05:21:42;99660.25;;;0.86;100.00
8160;BME280;27404;52.398;9.646;2024-02-26T05:24:09;99656.41;;;1.02;100.00
8160;BME280;27404;52.398;9.646;2024-02-26T05:26:35;99654.16;;;0.99;100.00
8160;BME280;27404;52.398;9.646;2024-02-26T05:29:00;99657.69;;;1.06;100.00
8160;BME280;27404;52.398;9.646;2024-02-26T05:31:26;99658.47;;;1.00;100.00
8160;BME280;27404;52.398;9.646;2024-02-26T05:33:52;99662.00;;;1.00;100.00
8160;BME280;27404;52.398;9.646;2024-02-26T05:36:21;99656.41;;;1.02;100.00
8160;BME280;27404;52.398;9.646;2024-02-26T05:38:48;99663.06;;;1.06;100.00
8160;BME280;27404;52.398;9.646;2024-02-26T05:41:16;99668.34;;;1.21;100.00
8160;BME280;27404;52.398;9.646;2024-02-26T05:43:45;99660.06;;;1.23;100.00
8160;BME280;27404;52.398;9.646;2024-02-26T05:46:10;99660.47;;;1.20;100.00
8160;BME280;27404;52.398;9.646;2024-02-26T05:48:36;99667.50;;;1.21;100.00
8160;BME280;27404;52.398;9.646;2024-02-26T05:51:01;99663.84;;;1.28;100.00
8160;BME280;27404;52.398;9.646;2024-02-26T05:53:27;99660.66;;;1.18;100.00
8160;BME280;27404;52.398;9.646;2024-02-26T05:55:52;99669.31;;;1.13;100.00
8160;BME280;27404;52.398;9.646;2024-02-26T05:58:18;99660.84;;;1.16;100.00
8160;BME280;27404;52.398;9.646;2024-02-26T06:00:43;99670.03;;;1.29;100.00
8160;BME280;27404;52.398;9.646;2024-02-26T06:03:08;99676.44;;;1.28;100.00
8160;BME280;27404;52.398;9.646;2024-02-26T06:05:34;99679.16;;;1.28;100.00
8160;BME280;27404;52.398;9.646;2024-02-26T06:08:00;99680.41;;;1.32;100.00
8160;BME280;27404;52.398;9.646;2024-02-26T06:10:26;99678.78;;;1.38;100.00
8160;BME280;27404;52.398;9.646;2024-02-26T06:12:51;99678.75;;;1.31;100.00
8160;BME280;27404;52.398;9.646;2024-02-26T06:15:17;99668.34;;;1.21;100.00
8160;BME280;27404;52.398;9.646;2024-02-26T06:17:42;99679.16;;;1.28;100.00
8160;BME280;27404;52.398;9.646;2024-02-26T06:20:08;99677.47;;;1.27;100.00
8160;BME280;27404;52.398;9.646;2024-02-26T06:22:41;99685.81;;;1.39;100.00
8160;BME280;27404;52.398;9.646;2024-02-26T06:25:07;99693.09;;;1.45;100.00
8160;BME280;27404;52.398;9.646;2024-02-26T06:27:33;99695.38;;;1.41;100.00
8160;BME280;27404;52.398;9.646;2024-02-26T06:29:58;99689.16;;;1.41;100.00
8160;BME280;27404;52.398;9.646;2024-02-26T06:32:23;99693.09;;;1.38;100.00
8160;BME280;27404;52.398;9.646;2024-02-26T06:34:49;99697.63;;;1.38;100.00
8160;BME280;27404;52.398;9.646;2024-02-26T06:37:14;99699.91;;;1.34;100.00
8160;BME280;27404;52.398;9.646;2024-02-26T06:39:40;99707.31;;;1.25;100.00
8160;BME280;27404;52.398;9.646;2024-02-26T06:42:06;99710.63;;;1.27;100.00
8160;BME280;27404;52.398;9.646;2024-02-26T06:44:33;99704.50;;;1.40;100.00
8160;BME280;27404;52.398;9.646;2024-02-26T06:46:59;99719.22;;;1.44;100.00
8160;BME280;27404;52.398;9.646;2024-02-26T06:49:25;99727.25;;;1.38;100.00
8160;BME280;27404;52.398;9.646;2024-02-26T06:51:50;99729.31;;;1.36;100.00
8160;BME280;27404;52.398;9.646;2024-02-26T06:54:16;99739.03;;;1.37;100.00
8160;BME280;27404;52.398;9.646;2024-02-26T06:56:42;99739.59;;;1.54;100.00
8160;BME280;27404;52.398;9.646;2024-02-26T06:59:07;99742.94;;;1.62;100.00
8160;BME280;27404;52.398;9.646;2024-02-26T07:01:33;99749.16;;;1.63;100.00
8160;BME280;27404;52.398;9.646;2024-02-26T07:03:58;99753.94;;;1.68;100.00
8160;BME280;27404;52.398;9.646;2024-02-26T07:06:23;99752.91;;;1.69;100.00
8160;BME280;27404;52.398;9.646;2024-02-26T07:08:49;99757.91;;;1.72;100.00
8160;BME280;27404;52.398;9.646;2024-02-26T07:11:14;99762.53;;;1.85;100.00
8160;BME280;27404;52.398;9.646;2024-02-26T07:13:40;99769.00;;;1.97;100.00
8160;BME280;27404;52.398;9.646;2024-02-26T07:16:05;99765.53;;;2.03;100.00
8160;BME280;27404;52.398;9.646;2024-02-26T07:18:31;99757.19;;;1.91;100.00
8160;BME280;27404;52.398;9.646;2024-02-26T07:20:57;99760.13;;;1.97;100.00
8160;BME280;27404;52.398;9.646;2024-02-26T07:23:22;99767.59;;;2.01;100.00
8160;BME280;27404;52.398;9.646;2024-02-26T07:25:48;99773.41;;;2.05;100.00
8160;BME280;27404;52.398;9.646;2024-02-26T07:28:15;99774.25;;;2.12;100.00
8160;BME280;27404;52.398;9.646;2024-02-26T07:30:41;99773.91;;;2.29;100.00
8160;BME280;27404;52.398;9.646;2024-02-26T07:33:06;99775.78;;;2.35;100.00
8160;BME280;27404;52.398;9.646;2024-02-26T07:35:32;99780.34;;;2.34;100.00
8160;BME280;27404;52.398;9.646;2024-02-26T07:37:58;99766.22;;;2.32;100.00
8160;BME280;27404;52.398;9.646;2024-02-26T07:40:24;99761.91;;;2.31;100.00
8160;BME280;27404;52.398;9.646;2024-02-26T07:42:49;99763.75;;;2.37;100.00
8160;BME280;27404;52.398;9.646;2024-02-26T07:45:15;99768.34;;;2.44;100.00
8160;BME280;27404;52.398;9.646;2024-02-26T07:47:40;99767.31;;;2.45;100.00
8160;BME280;27404;52.398;9.646;2024-02-26T07:50:08;99766.72;;;2.49;100.00
8160;BME280;27404;52.398;9.646;2024-02-26T07:52:34;99764.81;;;2.50;100.00
8160;BME280;27404;52.398;9.646;2024-02-26T07:54:59;99761.13;;;2.64;100.00
8160;BME280;27404;52.398;9.646;2024-02-26T07:57:25;99759.25;;;2.58;100.00
8160;BME280;27404;52.398;9.646;2024-02-26T07:59:50;99764.03;;;2.70;100.00
8160;BME280;27404;52.398;9.646;2024-02-26T08:02:16;99773.56;;;2.72;100.00
8160;BME280;27404;52.398;9.646;2024-02-26T08:04:41;99774.41;;;2.79;100.00
8160;BME280;27404;52.398;9.646;2024-02-26T08:07:07;99772.56;;;2.87;100.00
8160;BME280;27404;52.398;9.646;2024-02-26T08:09:32;99780.25;;;2.90;100.00
8160;BME280;27404;52.398;9.646;2024-02-26T08:11:58;99777.97;;;3.00;100.00
8160;BME280;27404;52.398;9.646;2024-02-26T08:14:24;99777.78;;;3.08;100.00
8160;BME280;27404;52.398;9.646;2024-02-26T08:16:49;99779.84;;;3.20;100.00
8160;BME280;27404;52.398;9.646;2024-02-26T08:19:15;99783.38;;;3.27;100.00
8160;BME280;27404;52.398;9.646;2024-02-26T08:21:41;99783.38;;;3.34;100.00
8160;BME280;27404;52.398;9.646;2024-02-26T08:24:07;99778.38;;;3.37;100.00
8160;BME280;27404;52.398;9.646;2024-02-26T08:26:32;99777.31;;;3.38;100.00
8160;BME280;27404;52.398;9.646;2024-02-26T08:28:57;99780.03;;;3.38;100.00
8160;BME280;27404;52.398;9.646;2024-02-26T08:31:23;99774.84;;;3.50;100.00
8160;BME280;27404;52.398;9.646;2024-02-26T08:33:49;99780.44;;;3.55;100.00
8160;BME280;27404;52.398;9.646;2024-02-26T08:36:14;99771.47;;;3.68;100.00
8160;BME280;27404;52.398;9.646;2024-02-26T08:38:40;99778.38;;;3.58;100.00
8160;BME280;27404;52.398;9.646;2024-02-26T08:41:05;99783.94;;;3.69;100.00
8160;BME280;27404;52.398;9.646;2024-02-26T08:43:31;99773.72;;;3.78;100.00
8160;BME280;27404;52.398;9.646;2024-02-26T08:45:57;99773.09;;;3.83;100.00
8160;BME280;27404;52.398;9.646;2024-02-26T08:48:23;99776.38;;;3.92;100.00
8160;BME280;27404;52.398;9.646;2024-02-26T08:50:48;99781.34;;;4.02;100.00
8160;BME280;27404;52.398;9.646;2024-02-26T08:53:14;99775.06;;;4.14;100.00
8160;BME280;27404;52.398;9.646;2024-02-26T08:55:39;99777.78;;;4.08;100.00
8160;BME280;27404;52.398;9.646;2024-02-26T08:58:05;99787.06;;;4.25;100.00
8160;BME280;27404;52.398;9.646;2024-02-26T09:00:30;99778.16;;;4.25;100.00
8160;BME280;27404;52.398;9.646;2024-02-26T09:02:56;99779.38;;;4.29;100.00
8160;BME280;27404;52.398;9.646;2024-02-26T09:05:21;99781.06;;;4.23;100.00
8160;BME280;27404;52.398;9.646;2024-02-26T09:07:47;99784.13;;;4.34;100.00
8160;BME280;27404;52.398;9.646;2024-02-26T09:10:12;99775.41;;;4.32;100.00
8160;BME280;27404;52.398;9.646;2024-02-26T09:12:38;99778.53;;;4.28;100.00
8160;BME280;27404;52.398;9.646;2024-02-26T09:15:06;99778.84;;;4.45;100.00
8160;BME280;27404;52.398;9.646;2024-02-26T09:17:32;99778.25;;;4.43;100.00
8160;BME280;27404;52.398;9.646;2024-02-26T09:19:57;99778.66;;;4.47;100.00
8160;BME280;27404;52.398;9.646;2024-02-26T09:22:23;99778.84;;;4.45;100.00
8160;BME280;27404;52.398;9.646;2024-02-26T09:24:48;99783.38;;;4.58;100.00
8160;BME280;27404;52.398;9.646;2024-02-26T09:27:15;99788.03;;;4.44;100.00
8160;BME280;27404;52.398;9.646;2024-02-26T09:29:41;99779.28;;;4.49;100.00
8160;BME280;27404;52.398;9.646;2024-02-26T09:32:07;99790.72;;;4.44;100.00
8160;BME280;27404;52.398;9.646;2024-02-26T09:34:32;99787.56;;;4.54;100.00
8160;BME280;27404;52.398;9.646;2024-02-26T09:36:59;99788.31;;;4.68;100.00
8160;BME280;27404;52.398;9.646;2024-02-26T09:39:24;99787.53;;;4.61;100.00
8160;BME280;27404;52.398;9.646;2024-02-26T09:41:50;99797.03;;;4.70;100.00
8160;BME280;27404;52.398;9.646;2024-02-26T09:44:19;99803.50;;;4.69;100.00
8160;BME280;27404;52.398;9.646;2024-02-26T09:46:48;99810.50;;;4.84;100.00
8160;BME280;27404;52.398;9.646;2024-02-26T09:49:15;99816.41;;;4.99;100.00
8160;BME280;27404;52.398;9.646;2024-02-26T09:51:41;99821.22;;;4.97;100.00
8160;BME280;27404;52.398;9.646;2024-02-26T09:54:07;99811.41;;;5.03;100.00
8160;BME280;27404;52.398;9.646;2024-02-26T09:56:35;99822.84;;;5.05;100.00
8160;BME280;27404;52.398;9.646;2024-02-26T09:59:01;99823.84;;;5.11;100.00
8160;BME280;27404;52.398;9.646;2024-02-26T10:01:29;99824.69;;;5.11;100.00
8160;BME280;27404;52.398;9.646;2024-02-26T10:03:59;99825.50;;;5.12;100.00
8160;BME280;27404;52.398;9.646;2024-02-26T10:06:27;99828.56;;;5.22;100.00
8160;BME280;27404;52.398;9.646;2024-02-26T10:08:54;99830.31;;;5.10;100.00
8160;BME280;27404;52.398;9.646;2024-02-26T10:11:20;99830.31;;;5.10;100.00
8160;BME280;27404;52.398;9.646;2024-02-26T10:13:46;99835.00;;;5.28;100.00
8160;BME280;27404;52.398;9.646;2024-02-26T10:16:11;99837.38;;;5.43;100.00
8160;BME280;27404;52.398;9.646;2024-02-26T10:18:50;99839.81;;;5.51;100.00
8160;BME280;27404;52.398;9.646;2024-02-26T10:21:17;99848.47;;;5.60;100.00
8160;BME280;27404;52.398;9.646;2024-02-26T10:23:45;99846.03;;;5.77;100.00
8160;BME280;27404;52.398;9.646;2024-02-26T10:26:12;99843.94;;;5.98;100.00
8160;BME280;27404;52.398;9.646;2024-02-26T10:28:39;99848.16;;;5.93;100.00
8160;BME280;27404;52.398;9.646;2024-02-26T10:31:06;99852.53;;;5.95;100.00
8160;BME280;27404;52.398;9.646;2024-02-26T10:33:35;99859.13;;;6.05;100.00
8160;BME280;27404;52.398;9.646;2024-02-26T10:36:07;99856.66;;;6.22;100.00
8160;BME280;27404;52.398;9.646;2024-02-26T10:38:33;99873.22;;;6.33;100.00
8160;BME280;27404;52.398;9.646;2024-02-26T10:40:59;99865.22;;;6.38;100.00
8160;BME280;27404;52.398;9.646;2024-02-26T10:43:27;99864.88;;;6.34;100.00
8160;BME280;27404;52.398;9.646;2024-02-26T10:45:56;99869.16;;;6.42;100.00
8160;BME280;27404;52.398;9.646;2024-02-26T10:48:22;99870.38;;;6.28;100.00
8160;BME280;27404;52.398;9.646;2024-02-26T10:50:48;99871.94;;;6.35;100.00
8160;BME280;27404;52.398;9.646;2024-02-26T10:53:20;99868.94;;;6.44;100.00
8160;BME280;27404;52.398;9.646;2024-02-26T10:55:54;99867.78;;;6.33;100.00
8160;BME280;27404;52.398;9.646;2024-02-26T10:58:21;99863.44;;;6.13;100.00
8160;BME280;27404;52.398;9.646;2024-02-26T11:00:49;99871.72;;;6.18;100.00
8160;BME280;27404;52.398;9.646;2024-02-26T11:03:15;99870.38;;;6.09;100.00
8160;BME280;27404;52.398;9.646;2024-02-26T11:05:44;99875.94;;;6.33;100.00
8160;BME280;27404;52.398;9.646;2024-02-26T11:08:11;99871.66;;;6.25;100.00
8160;BME280;27404;52.398;9.646;2024-02-26T11:10:37;99870.50;;;6.33;100.00
8160;BME280;27404;52.398;9.646;2024-02-26T11:13:05;99870.50;;;6.51;100.00
8160;BME280;27404;52.398;9.646;2024-02-26T11:15:32;99875.63;;;6.60;100.00
8160;BME280;27404;52.398;9.646;2024-02-26T11:17:59;99860.78;;;6.44;100.00
8160;BME280;27404;52.398;9.646;2024-02-26T11:20:28;99866.69;;;6.41;100.00
8160;BME280;27404;52.398;9.646;2024-02-26T11:22:56;99865.97;;;6.45;100.00
8160;BME280;27404;52.398;9.646;2024-02-26T11:25:22;99868.94;;;6.25;100.00
8160;BME280;27404;52.398;9.646;2024-02-26T11:27:52;99864.47;;;6.31;100.00
8160;BME280;27404;52.398;9.646;2024-02-26T11:30:19;99864.72;;;6.48;100.00
8160;BME280;27404;52.398;9.646;2024-02-26T11:32:46;99872.16;;;6.34;100.00
8160;BME280;27404;52.398;9.646;2024-02-26T11:35:12;99867.56;;;6.53;100.00
8160;BME280;27404;52.398;9.646;2024-02-26T11:37:41;99865.31;;;6.50;100.00
8160;BME280;27404;52.398;9.646;2024-02-26T11:40:11;99866.38;;;6.49;100.00
8160;BME280;27404;52.398;9.646;2024-02-26T11:42:43;99863.25;;;6.64;100.00
8160;BME280;27404;52.398;9.646;2024-02-26T11:45:48;99856.25;;;6.56;100.00
8160;BME280;27404;52.398;9.646;2024-02-26T11:48:15;99857.38;;;6.67;100.00
8160;BME280;27404;52.398;9.646;2024-02-26T11:50:46;99862.94;;;7.03;100.00
8160;BME280;27404;52.398;9.646;2024-02-26T11:53:30;99865.16;;;6.94;100.00
8160;BME280;27404;52.398;9.646;2024-02-26T11:59:19;99861.16;;;7.08;100.00
8160;BME280;27404;52.398;9.646;2024-02-26T12:02:01;99862.97;;;7.15;100.00
8160;BME280;27404;52.398;9.646;2024-02-26T12:04:27;99868.84;;;7.11;100.00
8160;BME280;27404;52.398;9.646;2024-02-26T12:07:00;99868.03;;;7.11;100.00
8160;BME280;27404;52.398;9.646;2024-02-26T12:09:33;99863.22;;;7.25;100.00
8160;BME280;27404;52.398;9.646;2024-02-26T12:12:01;99868.66;;;7.25;100.00
8160;BME280;27404;52.398;9.646;2024-02-26T12:14:26;99869.06;;;7.52;100.00
8160;BME280;27404;52.398;9.646;2024-02-26T12:16:52;99869.19;;;7.69;100.00
8160;BME280;27404;52.398;9.646;2024-02-26T12:19:18;99866.75;;;7.92;100.00
8160;BME280;27404;52.398;9.646;2024-02-26T12:21:44;99881.16;;;7.92;100.00
8160;BME280;27404;52.398;9.646;2024-02-26T12:24:14;99884.69;;;7.81;100.00
8160;BME280;27404;52.398;9.646;2024-02-26T12:26:41;99885.78;;;7.80;100.00
8160;BME280;27404;52.398;9.646;2024-02-26T12:29:07;99884.81;;;7.86;100.00
8160;BME280;27404;52.398;9.646;2024-02-26T12:31:33;99884.72;;;7.93;100.00
8160;BME280;27404;52.398;9.646;2024-02-26T12:34:00;99886.38;;;7.94;100.00
8160;BME280;27404;52.398;9.646;2024-02-26T12:36:26;99887.53;;;7.98;100.00
8160;BME280;27404;52.398;9.646;2024-02-26T12:38:52;99889.22;;;8.11;100.00
8160;BME280;27404;52.398;9.646;2024-02-26T12:41:17;99894.16;;;8.26;100.00
8160;BME280;27404;52.398;9.646;2024-02-26T12:43:43;99882.31;;;8.32;100.00
8160;BME280;27404;52.398;9.646;2024-02-26T12:46:08;99885.84;;;8.33;100.00
8160;BME280;27404;52.398;9.646;2024-02-26T12:48:35;99884.44;;;8.30;100.00
8160;BME280;27404;52.398;9.646;2024-02-26T12:51:00;99887.28;;;8.59;100.00
8160;BME280;27404;52.398;9.646;2024-02-26T12:53:26;99889.97;;;8.47;100.00
8160;BME280;27404;52.398;9.646;2024-02-26T12:55:55;99893.94;;;8.27;100.00
8160;BME280;27404;52.398;9.646;2024-02-26T12:58:22;99902.00;;;7.98;100.00
8160;BME280;27404;52.398;9.646;2024-02-26T13:00:54;99911.31;;;7.67;100.00
8160;BME280;27404;52.398;9.646;2024-02-26T13:03:20;99912.53;;;7.95;100.00
8160;BME280;27404;52.398;9.646;2024-02-26T13:05:46;99913.94;;;7.97;100.00
8160;BME280;27404;52.398;9.646;2024-02-26T13:08:21;99915.72;;;8.04;100.00